Time;durP1;ratioP1;P1;durP2;ratioP2;P2;SDS_P1;SDS_P2;PMS_P1;PMS_P2;Temp;Humidity;BMP_temperature;BMP_pressure;BME280_temperature;BME280_humidity;BME280_pressure;Samples;Min_cycle;Max_cycle;Signal;HPM_P1;HPM_P2
2023/10/20 00:00:46;;;;;;;10.23;9.33;;;13.40;99.90;;;;;;5013344;28;20206;-29
2023/10/20 00:03:11;;;;;;;12.27;10.03;;;13.30;99.90;;;;;;5013228;28;20199;-30
2023/10/20 00:05:37;;;;;;;10.23;9.23;;;13.30;99.90;;;;;;4997359;28;20191;-30
2023/10/20 00:08:03;;;;;;;9.97;9.00;;;13.30;99.90;;;;;;4997167;28;20179;-31
2023/10/20 00:10:35;;;;;;;10.73;9.53;;;13.30;99.90;;;;;;5013422;28;20183;-31
2023/10/20 00:13:01;;;;;;;10.43;8.73;;;13.20;99.90;;;;;;4994797;28;20183;-30
2023/10/20 00:15:28;;;;;;;8.60;7.80;;;13.20;99.90;;;;;;4997227;28;20206;-29
2023/10/20 00:17:54;;;;;;;8.70;7.70;;;13.10;99.90;;;;;;5013495;28;20187;-34
2023/10/20 00:20:20;;;;;;;8.00;7.20;;;13.20;99.90;;;;;;4997972;28;20203;-29
2023/10/20 00:22:46;;;;;;;8.03;7.23;;;13.10;99.90;;;;;;5012835;28;20179;-31
2023/10/20 00:25:12;;;;;;;8.63;7.83;;;13.20;99.90;;;;;;5007765;28;20291;-30
2023/10/20 00:27:38;;;;;;;8.30;6.93;;;13.20;99.90;;;;;;5012799;28;20180;-30
2023/10/20 00:30:07;;;;;;;9.57;7.47;;;13.20;99.90;;;;;;4996689;28;20187;-30
2023/10/20 00:32:34;;;;;;;8.57;7.67;;;13.20;99.90;;;;;;4996600;28;20187;-32
2023/10/20 00:35:03;;;;;;;8.07;7.30;;;13.20;99.90;;;;;;5013162;28;20199;-30
2023/10/20 00:37:31;;;;;;;9.10;8.00;;;13.20;99.90;;;;;;4996854;28;20187;-30
2023/10/20 00:39:57;;;;;;;8.87;7.97;;;13.20;99.90;;;;;;4996179;28;20272;-29
2023/10/20 00:42:23;;;;;;;8.43;7.43;;;13.20;99.90;;;;;;5012475;28;20183;-32
2023/10/20 00:44:49;;;;;;;9.53;7.83;;;13.20;99.90;;;;;;4996661;28;20357;-29
2023/10/20 00:47:17;;;;;;;9.47;7.97;;;13.20;99.90;;;;;;5013086;28;20237;-29
2023/10/20 00:49:45;;;;;;;8.73;7.73;;;13.20;99.90;;;;;;4996341;28;20183;-30
2023/10/20 00:52:15;;;;;;;8.40;7.60;;;13.20;99.90;;;;;;5013204;28;20179;-30
2023/10/20 00:54:44;;;;;;;11.47;9.20;;;13.20;99.90;;;;;;4996108;28;20210;-29
2023/10/20 00:57:12;;;;;;;9.30;8.50;;;13.20;99.90;;;;;;5004648;28;20229;-30
2023/10/20 00:59:38;;;;;;;9.87;8.87;;;13.20;99.90;;;;;;5012715;28;20210;-32
2023/10/20 01:02:04;;;;;;;11.27;9.67;;;13.20;99.90;;;;;;4996389;28;20184;-30
2023/10/20 01:04:30;;;;;;;13.70;9.87;;;13.20;99.90;;;;;;4996348;28;20257;-30
2023/10/20 01:06:56;;;;;;;10.47;9.53;;;13.10;99.90;;;;;;4995504;28;20171;-29
2023/10/20 01:09:26;;;;;;;11.77;9.53;;;13.10;99.90;;;;;;5011995;28;20243;-30
2023/10/20 01:11:53;;;;;;;11.07;9.93;;;13.10;99.90;;;;;;4996151;28;20210;-30
2023/10/20 01:14:20;;;;;;;11.57;9.43;;;13.10;99.90;;;;;;4992795;28;20212;-29
2023/10/20 01:16:46;;;;;;;11.83;10.60;;;13.00;99.90;;;;;;5011989;28;20183;-29
2023/10/20 01:19:13;;;;;;;11.27;10.07;;;13.00;99.90;;;;;;4995967;28;20202;-30
2023/10/20 01:21:39;;;;;;;10.63;9.63;;;13.00;99.90;;;;;;5011665;28;20267;-29
2023/10/20 01:24:05;;;;;;;12.70;10.60;;;13.00;99.90;;;;;;4996187;28;20325;-30
2023/10/20 01:26:34;;;;;;;11.53;10.30;;;13.00;99.90;;;;;;4993859;28;20229;-34
2023/10/20 01:29:01;;;;;;;11.90;10.70;;;13.00;99.90;;;;;;4986187;28;20183;-30
2023/10/20 01:31:30;;;;;;;11.10;9.90;;;13.00;99.90;;;;;;5011933;28;20180;-30
2023/10/20 01:33:56;;;;;;;9.53;8.53;;;13.00;99.90;;;;;;4994476;28;20206;-30
2023/10/20 01:36:22;;;;;;;9.37;8.47;;;13.00;99.90;;;;;;4995971;28;20175;-33
2023/10/20 01:38:47;;;;;;;8.50;7.70;;;13.10;99.90;;;;;;4995686;28;20191;-30
2023/10/20 01:41:13;;;;;;;8.83;7.93;;;13.10;99.90;;;;;;4995662;28;20190;-30
2023/10/20 01:43:39;;;;;;;9.30;8.37;;;13.10;99.90;;;;;;4995317;28;20207;-32
2023/10/20 01:46:05;;;;;;;10.50;8.53;;;13.10;99.90;;;;;;5012098;28;20179;-30
2023/10/20 01:48:31;;;;;;;10.87;9.20;;;13.10;99.90;;;;;;4995282;28;20183;-30
2023/10/20 01:50:59;;;;;;;10.40;8.63;;;13.10;99.90;;;;;;4995617;28;20180;-30
2023/10/20 01:53:25;;;;;;;10.63;9.50;;;13.10;99.90;;;;;;4994913;28;20249;-30
2023/10/20 01:55:51;;;;;;;12.23;11.00;;;13.10;99.90;;;;;;4992439;28;20191;-30
2023/10/20 01:58:18;;;;;;;14.23;12.33;;;13.10;99.90;;;;;;4989375;28;20274;-38
2023/10/20 02:00:48;;;;;;;11.33;10.13;;;13.10;99.90;;;;;;5006072;28;20208;-34
2023/10/20 02:03:14;;;;;;;11.97;10.73;;;13.10;99.90;;;;;;5010804;28;20195;-30
2023/10/20 02:05:40;;;;;;;14.93;10.97;;;13.10;99.90;;;;;;4994619;28;20182;-30
2023/10/20 02:08:08;;;;;;;12.47;9.80;;;13.10;99.90;;;;;;4995195;28;20176;-31
2023/10/20 02:10:35;;;;;;;11.37;10.07;;;13.00;99.90;;;;;;4995243;28;20229;-30
2023/10/20 02:13:01;;;;;;;11.30;10.20;;;13.00;99.90;;;;;;4994195;28;20188;-30
2023/10/20 02:15:27;;;;;;;11.73;10.53;;;13.00;99.90;;;;;;5010856;28;20199;-31
2023/10/20 02:17:54;;;;;;;11.30;10.10;;;13.00;99.90;;;;;;4994450;28;20187;-31
2023/10/20 02:20:23;;;;;;;12.47;10.23;;;13.00;99.90;;;;;;4994908;28;20202;-30
2023/10/20 02:22:53;;;;;;;11.43;10.33;;;13.00;99.90;;;;;;4994773;28;20179;-31
2023/10/20 02:25:19;;;;;;;11.20;10.03;;;13.00;99.90;;;;;;4994948;28;20183;-30
2023/10/20 02:27:47;;;;;;;13.10;11.03;;;13.00;99.90;;;;;;4994434;28;20192;-30
2023/10/20 02:30:14;;;;;;;11.07;10.07;;;13.00;99.90;;;;;;4992016;28;20180;-32
2023/10/20 02:32:43;;;;;;;10.83;9.83;;;13.00;99.90;;;;;;4993893;28;20233;-32
2023/10/20 02:35:10;;;;;;;11.07;9.93;;;13.00;99.90;;;;;;4994802;28;20207;-32
2023/10/20 02:37:35;;;;;;;10.20;9.10;;;13.00;99.90;;;;;;4994365;28;20183;-30
2023/10/20 02:40:04;;;;;;;11.47;10.30;;;13.00;99.90;;;;;;4987880;28;20210;-31
2023/10/20 02:42:34;;;;;;;12.80;10.23;;;13.00;99.90;;;;;;5005990;28;20214;-30
2023/10/20 02:45:00;;;;;;;11.57;10.37;;;13.00;99.90;;;;;;5008398;28;20243;-30
2023/10/20 02:47:25;;;;;;;11.00;9.90;;;12.90;99.90;;;;;;5004744;28;20199;-32
2023/10/20 02:49:55;;;;;;;11.27;9.67;;;13.00;99.90;;;;;;4992641;28;20187;-30
2023/10/20 02:52:25;;;;;;;10.47;9.37;;;13.00;99.90;;;;;;4992549;28;20183;-33
2023/10/20 02:54:53;;;;;;;13.23;10.20;;;13.00;99.90;;;;;;4985681;28;20207;-30
2023/10/20 02:57:23;;;;;;;12.67;11.30;;;13.00;99.90;;;;;;4988957;28;20198;-30
2023/10/20 02:59:51;;;;;;;11.73;10.00;;;13.00;99.90;;;;;;4987600;28;20211;-32
2023/10/20 03:02:20;;;;;;;11.47;9.60;;;12.90;99.90;;;;;;5004429;28;20235;-30
2023/10/20 03:04:46;;;;;;;11.40;10.30;;;12.90;99.90;;;;;;5002992;28;20234;-31
2023/10/20 03:07:12;;;;;;;9.27;8.37;;;13.00;99.90;;;;;;4992831;28;20230;-30
2023/10/20 03:09:38;;;;;;;9.50;8.17;;;13.00;99.90;;;;;;5010006;28;20179;-30
2023/10/20 03:12:04;;;;;;;10.03;9.03;;;13.00;99.90;;;;;;4988015;28;20224;-29
2023/10/20 03:14:31;;;;;;;11.30;9.60;;;13.00;99.90;;;;;;4998661;23;20239;-30
2023/10/20 03:16:57;;;;;;;11.00;9.93;;;13.00;99.90;;;;;;4989380;28;20243;-30
2023/10/20 03:19:23;;;;;;;11.20;10.10;;;13.00;99.90;;;;;;4986998;28;20295;-31
2023/10/20 03:21:50;;;;;;;9.80;8.87;;;13.00;99.90;;;;;;4974712;28;20200;-30
2023/10/20 03:24:15;;;;;;;10.60;8.67;;;13.00;99.90;;;;;;4987147;28;20255;-30
2023/10/20 03:26:42;;;;;;;9.73;8.37;;;13.00;99.90;;;;;;4986379;28;20180;-31
2023/10/20 03:29:08;;;;;;;10.63;9.33;;;13.00;99.90;;;;;;4987739;28;20191;-29
2023/10/20 03:31:34;;;;;;;9.57;8.60;;;13.00;99.90;;;;;;4986318;28;20188;-31
2023/10/20 03:34:00;;;;;;;9.40;8.40;;;13.00;99.90;;;;;;4990945;28;20199;-29
2023/10/20 03:36:27;;;;;;;11.40;8.93;;;13.00;99.90;;;;;;4988784;28;20188;-31
2023/10/20 03:38:53;;;;;;;9.27;8.37;;;12.90;99.90;;;;;;4988720;28;20183;-30
2023/10/20 03:41:22;;;;;;;10.50;8.70;;;12.90;99.90;;;;;;4996167;28;20202;-29
2023/10/20 03:43:50;;;;;;;8.73;7.27;;;12.90;99.90;;;;;;4974043;28;20216;-30
2023/10/20 03:46:18;;;;;;;9.23;7.43;;;12.90;99.90;;;;;;5006444;28;20257;-31
2023/10/20 03:48:45;;;;;;;9.03;6.83;;;12.90;99.90;;;;;;5006509;28;20200;-31
2023/10/20 03:51:12;;;;;;;9.00;7.00;;;12.90;99.90;;;;;;4993928;28;20200;-29
2023/10/20 03:53:57;;;;;;;8.50;7.60;;;12.90;99.90;;;;;;4982169;28;20201;-32
2023/10/20 03:56:24;;;;;;;9.30;8.30;;;12.90;99.90;;;;;;4986526;28;20176;-30
2023/10/20 03:58:49;;;;;;;9.10;8.13;;;12.90;99.90;;;;;;4984183;28;20212;-30
2023/10/20 04:01:15;;;;;;;9.43;8.53;;;12.90;99.90;;;;;;4985995;28;20239;-30
2023/10/20 04:03:43;;;;;;;10.97;9.97;;;12.90;99.90;;;;;;4986034;28;20197;-30
2023/10/20 04:06:09;;;;;;;10.47;9.47;;;13.00;99.90;;;;;;4986553;28;20236;-30
2023/10/20 04:08:35;;;;;;;14.30;9.17;;;13.00;99.90;;;;;;4989610;28;20181;-30
2023/10/20 04:11:01;;;;;;;11.70;9.27;;;12.90;99.90;;;;;;4986917;28;20189;-31
2023/10/20 04:13:32;;;;;;;27.37;10.03;;;12.90;99.90;;;;;;4985563;28;20189;-29
2023/10/20 04:15:57;;;;;;;16.90;9.77;;;12.90;99.90;;;;;;4985730;28;20188;-30
2023/10/20 04:18:23;;;;;;;12.60;9.20;;;12.90;99.90;;;;;;4988927;28;20633;-31
2023/10/20 04:20:50;;;;;;;10.07;9.07;;;12.90;99.90;;;;;;4971363;28;20215;-30
2023/10/20 04:23:19;;;;;;;14.13;8.97;;;12.90;99.90;;;;;;4970296;28;20210;-30
2023/10/20 04:25:55;;;;;;;16.43;9.93;;;12.80;99.90;;;;;;4985283;28;20193;-29
2023/10/20 05:02:40;;;;;;;11.80;10.70;;;12.70;99.90;;;;;;4979039;28;20188;-30
2023/10/20 05:05:25;;;;;;;9.90;8.77;;;12.70;99.90;;;;;;4989829;28;20200;-30
2023/10/20 05:07:52;;;;;;;8.50;7.50;;;12.60;99.90;;;;;;4988801;28;20275;-31
2023/10/20 05:10:19;;;;;;;7.40;6.70;;;12.60;99.90;;;;;;4987979;28;20185;-33
2023/10/20 05:12:46;;;;;;;7.40;5.80;;;12.60;99.90;;;;;;4989881;28;20187;-31
2023/10/20 05:15:13;;;;;;;6.47;5.87;;;12.60;99.90;;;;;;4993985;28;20208;-31
2023/10/20 05:17:39;;;;;;;6.17;5.20;;;12.60;99.90;;;;;;5008596;28;20271;-29
2023/10/20 05:20:06;;;;;;;7.20;5.30;;;12.60;99.90;;;;;;5008840;28;20212;-30
2023/10/20 05:22:32;;;;;;;6.47;5.20;;;12.60;99.90;;;;;;5009004;28;20179;-30
2023/10/20 05:24:58;;;;;;;9.30;5.20;;;12.60;99.90;;;;;;4987661;28;20208;-30
2023/10/20 05:27:25;;;;;;;5.80;5.23;;;12.60;99.90;;;;;;4995535;28;20181;-31
2023/10/20 05:29:51;;;;;;;5.80;5.30;;;12.60;99.90;;;;;;4989201;28;20271;-30
2023/10/20 05:32:17;;;;;;;5.87;5.30;;;12.60;99.90;;;;;;4993389;28;20187;-30
2023/10/20 05:34:43;;;;;;;6.60;6.00;;;12.60;99.90;;;;;;4979028;28;20204;-29
2023/10/20 05:37:10;;;;;;;9.37;8.37;;;12.60;99.90;;;;;;4974553;28;20251;-31
2023/10/20 05:39:36;;;;;;;8.43;7.47;;;12.60;99.90;;;;;;4989195;28;20236;-29
2023/10/20 05:42:06;;;;;;;7.60;6.77;;;12.60;99.90;;;;;;4988604;28;20208;-30
2023/10/20 05:44:32;;;;;;;6.67;5.60;;;12.70;99.90;;;;;;4987340;28;20205;-30
2023/10/20 05:46:58;;;;;;;6.43;5.20;;;12.70;99.90;;;;;;4990789;28;20280;-30
2023/10/20 05:49:24;;;;;;;6.67;5.97;;;12.70;99.90;;;;;;4987754;28;20279;-31
2023/10/20 05:51:51;;;;;;;7.03;5.73;;;12.70;99.90;;;;;;4992001;28;20180;-31
2023/10/20 05:54:18;;;;;;;7.23;6.03;;;12.70;99.90;;;;;;4987330;28;20251;-31
2023/10/20 05:56:44;;;;;;;7.20;6.50;;;12.70;99.90;;;;;;4989643;28;20275;-31
2023/10/20 05:59:10;;;;;;;8.23;6.33;;;12.70;99.90;;;;;;4993401;28;20292;-31
2023/10/20 06:01:36;;;;;;;7.50;6.43;;;12.60;99.90;;;;;;4987286;28;20255;-30
2023/10/20 06:04:03;;;;;;;8.57;6.87;;;12.60;99.90;;;;;;4988225;28;20209;-31
2023/10/20 06:06:32;;;;;;;7.70;6.90;;;12.60;99.90;;;;;;4987610;28;20192;-31
2023/10/20 06:08:58;;;;;;;6.80;6.10;;;12.60;99.90;;;;;;4988675;28;20184;-31
2023/10/20 06:11:24;;;;;;;8.43;7.23;;;12.60;99.90;;;;;;4988749;28;20242;-30
2023/10/20 06:13:50;;;;;;;8.20;6.90;;;12.60;99.90;;;;;;5004810;28;20279;-31
2023/10/20 06:16:16;;;;;;;8.37;7.43;;;12.60;99.90;;;;;;5008064;28;20243;-31
2023/10/20 06:18:42;;;;;;;7.10;6.40;;;12.60;99.90;;;;;;5008106;28;20275;-31
2023/10/20 06:21:22;;;;;;;8.10;7.17;;;12.60;99.90;;;;;;4991723;28;20211;-31
2023/10/20 06:23:50;;;;;;;10.10;9.10;;;12.60;99.90;;;;;;4985117;28;20204;-31
2023/10/20 06:26:16;;;;;;;11.17;9.53;;;12.60;99.90;;;;;;4988226;28;20184;-30
2023/10/20 06:28:43;;;;;;;14.10;11.57;;;12.60;99.90;;;;;;4988533;28;20184;-32
2023/10/20 06:31:42;;;;;;;11.80;10.60;;;12.60;99.90;;;;;;4996071;28;20184;-31
2023/10/20 06:34:14;;;;;;;10.03;8.73;;;12.60;99.90;;;;;;4974255;28;20215;-30
2023/10/20 06:36:48;;;;;;;9.67;8.50;;;12.60;99.90;;;;;;4994798;28;20184;-31
2023/10/20 06:39:15;;;;;;;9.80;8.23;;;12.60;99.90;;;;;;5007334;28;20180;-31
2023/10/20 06:41:41;;;;;;;9.47;8.47;;;12.60;99.90;;;;;;5000053;28;20180;-30
2023/10/20 06:44:13;;;;;;;9.40;7.97;;;12.60;99.90;;;;;;4987599;28;20216;-31
2023/10/20 06:46:39;;;;;;;10.03;9.03;;;12.60;99.90;;;;;;4987513;28;20180;-30
2023/10/20 06:49:07;;;;;;;10.90;8.17;;;12.60;99.90;;;;;;4990025;28;20184;-30
2023/10/20 06:51:32;;;;;;;10.23;9.23;;;12.60;99.90;;;;;;4993090;28;20176;-30
2023/10/20 06:53:58;;;;;;;10.80;9.37;;;12.60;99.90;;;;;;5007234;28;20211;-31
2023/10/20 06:56:24;;;;;;;11.03;9.83;;;12.60;99.90;;;;;;4998973;28;20180;-30
2023/10/20 06:58:50;;;;;;;13.37;9.67;;;12.60;99.90;;;;;;5003536;28;20195;-30
2023/10/20 07:01:16;;;;;;;12.67;9.67;;;12.70;99.90;;;;;;4992920;28;20296;-31
2023/10/20 07:03:41;;;;;;;18.53;15.60;;;12.70;99.90;;;;;;4987252;28;20247;-30
2023/10/20 07:06:09;;;;;;;21.10;17.83;;;12.60;99.90;;;;;;4987020;28;20184;-30
2023/10/20 07:08:35;;;;;;;17.57;13.40;;;12.70;99.90;;;;;;4987337;28;20251;-30
2023/10/20 07:11:02;;;;;;;11.87;9.57;;;12.70;99.90;;;;;;4987536;28;20708;-30
2023/10/20 07:13:28;;;;;;;10.03;9.03;;;12.70;99.90;;;;;;4971234;28;20180;-30
2023/10/20 07:15:56;;;;;;;11.87;10.47;;;12.70;99.90;;;;;;4994345;28;20214;-31
2023/10/20 07:18:23;;;;;;;11.57;10.37;;;12.70;99.90;;;;;;4997170;28;20200;-31
2023/10/20 07:20:48;;;;;;;11.80;10.60;;;12.70;99.90;;;;;;4988188;28;20219;-31
2023/10/20 07:23:18;;;;;;;12.40;10.40;;;12.70;99.90;;;;;;4994794;28;20184;-30
2023/10/20 07:25:44;;;;;;;15.53;11.27;;;12.70;99.90;;;;;;4985546;28;20192;-30
2023/10/20 07:28:11;;;;;;;14.60;12.00;;;12.80;99.90;;;;;;4986713;28;20200;-30
2023/10/20 07:30:37;;;;;;;16.03;12.40;;;12.80;99.90;;;;;;4989901;28;20191;-30
2023/10/20 07:33:04;;;;;;;16.47;11.50;;;12.80;99.90;;;;;;4986976;28;20278;-30
2023/10/20 07:35:30;;;;;;;12.77;11.47;;;12.80;99.90;;;;;;5002125;28;20243;-30
2023/10/20 07:37:57;;;;;;;16.07;12.33;;;12.90;99.90;;;;;;4995799;28;20318;-29
2023/10/20 07:40:26;;;;;;;13.87;11.50;;;12.90;99.90;;;;;;5006859;28;20286;-29
2023/10/20 07:42:54;;;;;;;16.23;11.73;;;12.90;99.90;;;;;;4990836;28;20191;-30
2023/10/20 07:45:20;;;;;;;14.23;11.00;;;13.00;99.90;;;;;;5006043;28;20275;-29
2023/10/20 07:47:46;;;;;;;13.00;11.60;;;13.00;99.90;;;;;;5005985;28;20191;-29
2023/10/20 07:50:12;;;;;;;14.73;11.27;;;13.00;99.90;;;;;;4989342;28;20184;-30
2023/10/20 07:52:38;;;;;;;12.20;10.70;;;13.00;99.90;;;;;;4989638;28;20191;-29
2023/10/20 07:55:05;;;;;;;12.90;11.10;;;13.00;99.90;;;;;;5002483;28;20212;-29
2023/10/20 07:57:32;;;;;;;11.90;10.70;;;13.10;99.90;;;;;;4986631;28;20364;-30
2023/10/20 07:59:59;;;;;;;13.50;11.60;;;13.10;99.90;;;;;;4989345;28;20212;-30
2023/10/20 08:02:25;;;;;;;21.17;16.03;;;13.10;99.90;;;;;;4998068;28;20241;-29
2023/10/20 08:04:52;;;;;;;15.73;12.20;;;13.10;99.90;;;;;;4988635;28;20197;-29
2023/10/20 08:07:18;;;;;;;12.57;11.33;;;13.10;99.90;;;;;;4986739;28;20181;-29
2023/10/20 08:09:46;;;;;;;13.10;10.40;;;13.10;99.90;;;;;;4970445;28;20192;-29
2023/10/20 08:12:13;;;;;;;12.87;10.67;;;13.20;99.90;;;;;;4983773;28;20176;-30
2023/10/20 08:14:40;;;;;;;12.20;10.33;;;13.20;99.90;;;;;;4981518;28;20307;-29
2023/10/20 08:17:07;;;;;;;11.97;9.77;;;13.30;99.90;;;;;;4989758;28;20192;-29
2023/10/20 08:19:34;;;;;;;10.27;9.03;;;13.30;99.90;;;;;;5005192;28;20208;-29
2023/10/20 08:21:59;;;;;;;12.40;9.63;;;13.30;99.90;;;;;;5003992;28;20188;-29
2023/10/20 08:24:25;;;;;;;21.50;17.20;;;13.40;99.90;;;;;;4990489;28;20205;-30
2023/10/20 08:26:51;;;;;;;12.83;11.53;;;13.40;99.90;;;;;;4973574;28;20188;-29
2023/10/20 08:29:18;;;;;;;13.80;10.37;;;13.50;99.90;;;;;;4984710;28;20184;-30
2023/10/20 08:31:44;;;;;;;14.43;12.60;;;13.50;99.90;;;;;;4995730;28;20185;-31
2023/10/20 08:34:09;;;;;;;14.47;12.70;;;13.60;99.90;;;;;;4989750;28;20217;-30
2023/10/20 08:36:36;;;;;;;15.83;12.13;;;13.70;99.90;;;;;;5004092;28;20203;-30
2023/10/20 08:39:05;;;;;;;14.97;11.93;;;13.80;99.90;;;;;;4993529;28;20276;-31
2023/10/20 08:41:31;;;;;;;13.67;11.67;;;13.90;99.90;;;;;;5009840;28;20278;-30
2023/10/20 08:43:57;;;;;;;13.03;11.63;;;14.00;99.90;;;;;;4993654;28;20282;-31
2023/10/20 08:46:23;;;;;;;12.93;10.90;;;14.00;99.90;;;;;;5006654;28;20180;-30
2023/10/20 08:48:49;;;;;;;13.13;11.20;;;14.00;99.90;;;;;;4989947;28;20282;-30
2023/10/20 08:51:17;;;;;;;11.27;9.83;;;14.10;99.90;;;;;;4989872;28;20322;-30
2023/10/20 08:53:44;;;;;;;13.53;10.63;;;14.10;99.90;;;;;;4989840;28;20228;-30
2023/10/20 08:56:12;;;;;;;11.57;10.37;;;14.20;99.90;;;;;;4989980;28;20282;-30
2023/10/20 08:58:38;;;;;;;10.97;9.87;;;14.30;99.90;;;;;;4989904;28;20193;-30
2023/10/20 09:01:05;;;;;;;10.53;9.43;;;14.30;99.90;;;;;;4989808;28;20243;-31
2023/10/20 09:03:48;;;;;;;11.10;9.57;;;14.30;99.90;;;;;;4990089;28;20663;-30
2023/10/20 09:06:14;;;;;;;10.70;9.60;;;14.40;99.90;;;;;;4989927;28;20187;-31
2023/10/20 09:08:49;;;;;;;27.30;23.57;;;14.40;99.90;;;;;;4989664;28;20641;-31
2023/10/20 09:11:15;;;;;;;12.10;10.90;;;14.40;99.90;;;;;;4989376;28;20199;-31
2023/10/20 09:13:43;;;;;;;10.63;9.43;;;14.50;99.90;;;;;;4989806;28;20204;-30
2023/10/20 09:16:10;;;;;;;11.90;9.27;;;14.50;99.90;;;;;;4989855;28;20185;-30
2023/10/20 09:18:44;;;;;;;9.80;8.80;;;14.50;99.90;;;;;;4994080;28;20184;-29
2023/10/20 09:21:13;;;;;;;8.87;7.97;;;14.50;99.90;;;;;;4996306;28;20214;-30
2023/10/20 09:23:39;;;;;;;10.17;9.07;;;14.50;99.90;;;;;;4993745;28;20200;-30
2023/10/20 09:26:06;;;;;;;11.30;9.00;;;14.60;99.90;;;;;;4976547;28;20190;-30
2023/10/20 09:28:32;;;;;;;11.37;8.57;;;14.70;99.90;;;;;;4992886;28;20710;-30
2023/10/20 09:30:59;;;;;;;11.93;8.73;;;14.80;99.90;;;;;;5000933;28;20192;-30
2023/10/20 09:33:26;;;;;;;9.67;8.37;;;14.90;99.90;;;;;;4988461;28;20195;-31
2023/10/20 09:35:53;;;;;;;8.53;7.63;;;15.00;99.90;;;;;;4988255;28;20197;-30
2023/10/20 09:38:26;;;;;;;10.93;7.80;;;15.10;99.90;;;;;;4988384;28;20231;-29
2023/10/20 09:41:12;;;;;;;10.70;7.83;;;15.10;99.90;;;;;;4989150;28;20204;-29
2023/10/20 09:44:06;;;;;;;9.17;7.47;;;15.20;99.90;;;;;;5001461;28;20250;-30
2023/10/20 09:46:55;;;;;;;8.53;7.37;;;15.40;99.90;;;;;;4987710;28;20188;-30
2023/10/20 09:49:24;;;;;;;8.07;6.70;;;15.50;99.90;;;;;;5008410;28;20206;-30
2023/10/20 09:51:50;;;;;;;8.63;6.90;;;15.50;99.90;;;;;;4996282;28;20188;-30
2023/10/20 09:54:19;;;;;;;7.45;6.47;;;15.70;99.90;;;;;;4998658;28;20200;-30
2023/10/20 09:56:46;;;;;;;7.40;6.43;;;15.60;99.90;;;;;;4989331;28;20189;-31
2023/10/20 09:59:23;;;;;;;9.50;6.07;;;15.60;99.90;;;;;;4988741;28;20239;-30
2023/10/20 10:01:58;;;;;;;8.77;7.18;;;15.60;99.90;;;;;;4994006;28;20189;-30
2023/10/20 10:04:31;;;;;;;8.73;7.83;;;15.60;99.90;;;;;;4972500;28;20232;-30
2023/10/20 10:07:04;;;;;;;6.80;5.50;;;15.70;99.90;;;;;;4990197;28;20689;-29
2023/10/20 10:09:37;;;;;;;8.77;5.57;;;15.60;99.90;;;;;;4981458;28;20187;-29
2023/10/20 10:12:08;;;;;;;8.70;6.47;;;15.70;99.90;;;;;;5003874;28;20180;-30
2023/10/20 10:14:35;;;;;;;8.53;5.83;;;15.70;99.90;;;;;;4990844;28;20241;-30
2023/10/20 10:17:07;;;;;;;6.93;5.33;;;15.80;99.90;;;;;;5005802;28;20668;-30
2023/10/20 10:19:33;;;;;;;7.07;5.18;;;15.80;99.90;;;;;;4998812;28;20208;-30
2023/10/20 10:22:01;;;;;;;5.68;5.10;;;15.90;99.90;;;;;;4973376;28;20177;-29
2023/10/20 10:24:31;;;;;;;4.93;4.28;;;15.90;99.90;;;;;;4987988;28;20211;-30
2023/10/20 10:26:59;;;;;;;4.47;3.85;;;16.00;99.90;;;;;;4972964;28;20188;-30
2023/10/20 10:29:53;;;;;;;5.85;4.30;;;16.00;99.90;;;;;;4988134;28;20191;-30
2023/10/20 10:32:21;;;;;;;4.13;3.63;;;16.00;99.90;;;;;;4988388;28;20185;-30
2023/10/20 10:34:52;;;;;;;4.85;4.20;;;16.00;99.90;;;;;;5007120;28;20286;-29
2023/10/20 10:37:34;;;;;;;5.82;3.70;;;16.00;99.90;;;;;;4990614;28;20246;-30
2023/10/20 10:40:07;;;;;;;4.40;4.00;;;16.10;99.90;;;;;;5007186;28;20269;-30
2023/10/20 10:42:40;;;;;;;4.60;4.20;;;16.10;99.90;;;;;;5003979;28;20271;-30
2023/10/20 10:45:23;;;;;;;5.78;4.20;;;16.20;99.90;;;;;;4987825;28;20204;-32
2023/10/20 10:48:09;;;;;;;8.20;5.05;;;16.20;99.90;;;;;;4991439;28;20202;-30
2023/10/20 10:50:46;;;;;;;4.18;3.10;;;16.30;99.90;;;;;;5007283;28;20188;-29
2023/10/20 10:53:13;;;;;;;4.38;3.40;;;16.30;99.90;;;;;;5007292;28;20187;-29
2023/10/20 10:55:40;;;;;;;3.10;2.80;;;16.30;99.90;;;;;;4997011;28;20232;-30
2023/10/20 10:58:12;;;;;;;6.20;2.70;;;16.30;99.90;;;;;;4994980;28;20188;-30
2023/10/20 11:00:39;;;;;;;3.55;2.13;;;16.30;99.90;;;;;;4997323;28;20208;-29
2023/10/20 11:03:07;;;;;;;3.42;2.33;;;16.40;99.90;;;;;;4987491;28;20185;-30
2023/10/20 11:05:34;;;;;;;4.00;2.60;;;16.40;99.90;;;;;;4993772;28;20204;-30
2023/10/20 11:08:09;;;;;;;2.60;2.10;;;16.40;99.90;;;;;;4989994;28;20189;-30
2023/10/20 11:10:40;;;;;;;2.17;2.00;;;16.40;99.90;;;;;;4983989;28;20181;-29
2023/10/20 11:13:12;;;;;;;2.10;1.90;;;16.40;99.90;;;;;;4989039;28;20196;-29
2023/10/20 11:15:39;;;;;;;2.50;1.90;;;16.50;99.90;;;;;;4995587;28;20254;-30
2023/10/20 11:18:06;;;;;;;3.10;2.22;;;16.60;99.90;;;;;;4987185;28;20184;-30
2023/10/20 11:20:37;;;;;;;2.05;1.67;;;16.70;99.90;;;;;;4985557;28;20295;-30
2023/10/20 11:23:07;;;;;;;1.75;1.50;;;16.70;99.90;;;;;;4971750;28;20243;-29
2023/10/20 11:25:36;;;;;;;1.90;1.80;;;16.80;99.90;;;;;;4992213;28;20196;-30
2023/10/20 11:28:04;;;;;;;2.13;2.00;;;17.00;99.90;;;;;;4988851;28;20176;-29
2023/10/20 11:30:35;;;;;;;1.52;1.42;;;17.00;99.90;;;;;;4986231;28;20176;-30
2023/10/20 11:33:03;;;;;;;1.17;1.08;;;17.00;99.90;;;;;;4987480;28;20184;-30
2023/10/20 11:35:29;;;;;;;0.90;0.90;;;17.00;99.90;;;;;;4986877;28;20252;-30
2023/10/20 11:37:56;;;;;;;1.48;0.98;;;17.00;99.90;;;;;;4987250;28;20188;-29
2023/10/20 11:40:23;;;;;;;0.63;0.63;;;17.10;99.90;;;;;;4986481;28;20221;-30
2023/10/20 11:42:49;;;;;;;0.45;0.45;;;17.10;99.90;;;;;;4991293;28;20184;-30
2023/10/20 11:45:16;;;;;;;0.75;0.60;;;17.20;99.90;;;;;;4996014;28;20290;-30
2023/10/20 11:47:43;;;;;;;0.40;0.40;;;17.20;99.90;;;;;;4981582;28;20231;-33
2023/10/20 11:50:10;;;;;;;0.40;0.40;;;17.20;99.90;;;;;;4997462;28;20254;-30
2023/10/20 11:52:40;;;;;;;0.52;0.50;;;17.30;99.90;;;;;;5002692;28;20215;-30
2023/10/20 11:55:10;;;;;;;0.80;0.50;;;17.30;99.90;;;;;;4987912;28;20200;-29
2023/10/20 11:57:39;;;;;;;2.17;0.55;;;17.40;99.90;;;;;;4997514;28;20276;-30
2023/10/20 12:00:09;;;;;;;0.70;0.70;;;17.40;99.90;;;;;;4993849;28;20201;-29
2023/10/20 12:02:38;;;;;;;0.82;0.60;;;17.50;99.90;;;;;;4985739;28;20180;-30
2023/10/20 12:05:07;;;;;;;0.60;0.60;;;17.50;99.90;;;;;;4983773;28;20719;-29
2023/10/20 12:07:34;;;;;;;0.80;0.52;;;17.40;99.90;;;;;;4994032;28;20185;-30
2023/10/20 12:10:00;;;;;;;0.43;0.43;;;17.40;99.90;;;;;;4999392;28;20188;-29
2023/10/20 12:12:26;;;;;;;1.85;0.60;;;17.50;99.90;;;;;;4997885;28;20184;-29
2023/10/20 12:14:52;;;;;;;0.60;0.60;;;17.50;99.90;;;;;;4984566;28;20220;-30
2023/10/20 12:17:19;;;;;;;0.50;0.50;;;17.60;99.90;;;;;;4995959;28;20195;-29
2023/10/20 12:19:45;;;;;;;0.88;0.43;;;17.70;99.90;;;;;;4990286;28;20212;-29
2023/10/20 12:22:11;;;;;;;0.40;0.40;;;17.70;99.90;;;;;;4982626;28;20181;-30
2023/10/20 12:24:37;;;;;;;0.50;0.30;;;17.70;99.90;;;;;;4992586;28;20272;-30
2023/10/20 12:27:03;;;;;;;1.75;0.82;;;17.80;99.90;;;;;;4974102;28;20224;-30
2023/10/20 12:29:30;;;;;;;0.57;0.57;;;17.80;99.90;;;;;;4993092;28;20192;-29
2023/10/20 12:31:58;;;;;;;1.45;0.80;;;17.80;99.90;;;;;;4990256;28;20185;-29
2023/10/20 12:34:25;;;;;;;0.40;0.40;;;17.90;99.90;;;;;;4974566;28;20284;-29
2023/10/20 12:36:51;;;;;;;0.73;0.40;;;18.00;99.90;;;;;;4990398;28;20188;-29
2023/10/20 12:39:18;;;;;;;0.40;0.40;;;18.00;99.90;;;;;;5006822;28;20181;-30
2023/10/20 12:41:44;;;;;;;0.50;0.40;;;18.00;99.90;;;;;;5005930;28;20187;-30
2023/10/20 12:44:13;;;;;;;0.40;0.40;;;18.00;99.90;;;;;;5010035;28;20199;-30
2023/10/20 12:46:40;;;;;;;0.77;0.60;;;18.10;99.90;;;;;;4993109;28;20181;-29
2023/10/20 12:49:06;;;;;;;0.35;0.35;;;18.20;99.90;;;;;;4975603;28;20208;-31
2023/10/20 12:51:33;;;;;;;0.40;0.40;;;18.20;99.90;;;;;;4975384;28;20192;-30
2023/10/20 12:54:01;;;;;;;0.40;0.40;;;18.10;99.90;;;;;;4989695;28;20212;-30
2023/10/20 12:56:28;;;;;;;0.57;0.47;;;18.10;99.90;;;;;;4998482;28;20184;-29
2023/10/20 12:58:53;;;;;;;1.05;0.40;;;18.20;99.90;;;;;;5001323;28;20189;-30
2023/10/20 13:01:21;;;;;;;1.42;0.35;;;18.20;99.90;;;;;;4994424;28;20215;-29
2023/10/20 13:03:48;;;;;;;0.30;0.30;;;18.10;99.90;;;;;;4989638;28;20699;-30
2023/10/20 13:06:15;;;;;;;0.60;0.60;;;18.10;99.90;;;;;;4990233;28;20184;-30
2023/10/20 13:08:43;;;;;;;1.30;0.40;;;18.10;99.90;;;;;;4989713;28;20181;-29
2023/10/20 13:11:10;;;;;;;0.50;0.43;;;18.10;99.90;;;;;;4997634;28;20196;-30
2023/10/20 13:13:36;;;;;;;1.42;0.43;;;17.90;99.90;;;;;;5009183;28;20180;-30
2023/10/20 13:16:02;;;;;;;0.25;0.22;;;17.80;99.90;;;;;;5009542;28;20194;-30
2023/10/20 13:18:28;;;;;;;0.43;0.40;;;17.80;99.90;;;;;;4992571;28;20555;-30